Time;durP1;ratioP1;P1;durP2;ratioP2;P2;SDS_P1;SDS_P2;PMS_P1;PMS_P2;Temp;Humidity;BMP_temperature;BMP_pressure;BME280_temperature;BME280_humidity;BME280_pressure;Samples;Min_cycle;Max_cycle;Signal;HPM_P1;HPM_P2
2024/02/01 00:02:22;;;;;;;8.50;4.00;;;;;;;26.02;33.68;102389.84;5088489;28;20036;-46
2024/02/01 00:04:48;;;;;;;9.02;3.25;;;;;;;25.97;33.79;102401.03;5088920;28;20032;-47
2024/02/01 00:07:13;;;;;;;6.88;3.17;;;;;;;25.88;34.13;102386.97;5089446;28;20044;-46
2024/02/01 00:09:38;;;;;;;8.07;3.15;;;;;;;25.86;33.77;102391.97;5076458;28;20028;-42
2024/02/01 00:12:04;;;;;;;11.40;4.05;;;;;;;25.82;33.80;102388.16;5078073;28;20392;-44
2024/02/01 00:14:29;;;;;;;6.75;2.97;;;;;;;25.88;33.78;102395.28;5074510;28;20111;-49
2024/02/01 00:16:55;;;;;;;9.32;3.22;;;;;;;25.87;33.88;102393.63;5079918;28;20107;-50
2024/02/01 00:19:20;;;;;;;5.05;2.63;;;;;;;25.85;34.12;102401.41;5087562;28;20038;-46
2024/02/01 00:21:46;;;;;;;8.57;3.22;;;;;;;25.82;34.02;102385.38;5086131;28;20039;-44
2024/02/01 00:24:12;;;;;;;9.73;3.33;;;;;;;25.82;33.89;102386.19;5083292;28;20452;-44
2024/02/01 00:26:37;;;;;;;6.13;2.95;;;;;;;25.84;34.17;102392.28;5082772;28;20032;-46
2024/02/01 00:29:02;;;;;;;9.73;3.42;;;;;;;25.82;33.95;102396.47;5082398;28;20123;-45
2024/02/01 00:31:28;;;;;;;9.00;3.45;;;;;;;25.86;34.14;102401.16;5085899;28;20093;-45
2024/02/01 00:33:53;;;;;;;9.88;3.58;;;;;;;25.87;34.00;102399.19;5077022;28;20032;-45
2024/02/01 00:36:19;;;;;;;8.55;3.15;;;;;;;25.87;33.88;102400.00;5088975;28;20035;-47
2024/02/01 00:38:44;;;;;;;7.57;3.40;;;;;;;25.93;33.92;102390.53;5085194;28;20040;-46
2024/02/01 00:41:10;;;;;;;9.20;3.05;;;;;;;25.91;33.93;102398.31;5067555;28;20020;-48
2024/02/01 00:43:35;;;;;;;8.20;2.95;;;;;;;25.87;33.88;102382.53;5071268;28;20036;-46
2024/02/01 00:46:00;;;;;;;10.82;3.20;;;;;;;25.88;34.62;102392.53;5080678;28;20027;-46
2024/02/01 00:48:26;;;;;;;9.07;3.60;;;;;;;25.83;34.08;102385.06;5087458;28;20032;-46
2024/02/01 00:50:51;;;;;;;8.35;2.92;;;;;;;25.84;34.40;102386.72;5088325;28;20022;-50
2024/02/01 00:53:16;;;;;;;10.25;3.03;;;;;;;25.88;33.97;102387.78;5087955;28;20016;-48
2024/02/01 00:55:42;;;;;;;20.25;3.92;;;;;;;25.88;34.08;102398.06;5088812;28;20022;-48
2024/02/01 00:58:07;;;;;;;6.45;3.28;;;;;;;25.86;34.29;102390.03;5069587;28;20039;-47
2024/02/01 01:00:33;;;;;;;7.78;3.22;;;;;;;25.83;34.44;102398.13;5083320;28;20024;-46
2024/02/01 01:02:59;;;;;;;9.00;3.70;;;;;;;25.85;34.20;102405.03;5084188;28;20052;-49
2024/02/01 01:05:25;;;;;;;8.20;3.20;;;;;;;25.88;34.11;102403.63;5085167;28;20043;-44
2024/02/01 01:07:50;;;;;;;8.70;3.03;;;;;;;25.90;34.00;102413.31;5084754;28;20028;-48
2024/02/01 01:10:16;;;;;;;8.05;3.30;;;;;;;25.92;34.29;102405.53;5079522;28;20032;-48
2024/02/01 01:12:41;;;;;;;12.60;3.55;;;;;;;25.90;34.15;102398.63;5077785;28;20066;-47
2024/02/01 01:15:07;;;;;;;7.88;3.38;;;;;;;25.87;34.04;102407.53;5070373;28;20035;-48
2024/02/01 01:17:32;;;;;;;7.80;3.42;;;;;;;25.91;34.22;102414.97;5087194;28;20031;-48
2024/02/01 01:20:02;;;;;;;10.13;4.18;;;;;;;25.91;33.96;102417.75;5070695;28;20078;-46
2024/02/01 01:22:29;;;;;;;12.23;3.30;;;;;;;25.91;34.06;102422.47;5084901;28;20484;-48
2024/02/01 01:24:54;;;;;;;10.45;4.35;;;;;;;25.90;34.18;102432.75;5083695;28;20032;-49
2024/02/01 01:27:20;;;;;;;10.20;3.55;;;;;;;25.92;34.11;102433.31;5087339;28;20038;-46
2024/02/01 01:29:45;;;;;;;10.13;3.53;;;;;;;25.87;34.50;102438.88;5082690;28;20032;-44
2024/02/01 01:32:10;;;;;;;7.78;3.42;;;;;;;25.89;34.40;102456.09;5070206;28;20416;-43
2024/02/01 01:34:36;;;;;;;12.10;3.60;;;;;;;25.92;34.29;102449.97;5088720;28;20081;-45
2024/02/01 01:37:01;;;;;;;10.38;3.42;;;;;;;25.97;34.02;102451.84;5082435;28;20020;-44
2024/02/01 01:39:26;;;;;;;9.13;3.65;;;;;;;25.93;34.25;102446.06;5083420;28;20536;-47
2024/02/01 01:41:52;;;;;;;14.10;3.50;;;;;;;25.97;34.11;102445.47;5063308;28;20028;-46
2024/02/01 01:44:17;;;;;;;9.38;3.85;;;;;;;25.95;34.16;102441.03;5082645;28;20257;-43
2024/02/01 01:46:43;;;;;;;7.78;3.38;;;;;;;25.97;34.21;102456.59;5083107;28;20020;-43
2024/02/01 01:49:09;;;;;;;11.57;4.43;;;;;;;25.94;34.11;102458.00;5085701;28;20031;-43
2024/02/01 01:51:35;;;;;;;9.23;3.55;;;;;;;25.94;34.41;102460.78;5058534;28;20028;-42
2024/02/01 01:54:01;;;;;;;8.13;3.38;;;;;;;25.96;33.94;102466.88;5079311;28;20927;-44
2024/02/01 01:56:27;;;;;;;9.50;3.10;;;;;;;26.00;34.09;102467.13;5070539;28;20031;-46
2024/02/01 01:58:52;;;;;;;9.73;3.88;;;;;;;25.95;34.24;102459.66;5083115;28;20016;-42
2024/02/01 02:01:18;;;;;;;7.85;3.83;;;;;;;25.97;34.08;102468.50;5058637;28;20028;-44
2024/02/01 02:03:46;;;;;;;8.93;3.58;;;;;;;25.97;34.46;102470.47;5066479;28;20047;-44
2024/02/01 02:06:12;;;;;;;9.32;3.90;;;;;;;25.99;34.11;102479.34;5060086;28;20388;-43
2024/02/01 02:08:37;;;;;;;10.05;3.83;;;;;;;25.97;34.15;102478.81;5084263;28;20024;-44
2024/02/01 02:11:04;;;;;;;9.95;3.47;;;;;;;25.97;34.05;102492.69;5085809;28;20424;-43
2024/02/01 02:13:29;;;;;;;11.70;3.38;;;;;;;25.97;34.40;102501.03;5088499;28;20020;-43
2024/02/01 02:15:56;;;;;;;6.03;3.50;;;;;;;26.01;34.27;102493.75;5087794;28;20023;-48
2024/02/01 02:18:21;;;;;;;10.35;3.35;;;;;;;25.99;34.19;102498.78;5069545;28;20031;-43
2024/02/01 02:20:48;;;;;;;9.15;3.15;;;;;;;25.97;33.93;102501.84;5086717;28;20031;-45
2024/02/01 02:23:14;;;;;;;8.88;3.65;;;;;;;26.00;34.10;102506.00;5079895;28;20048;-44
2024/02/01 02:25:39;;;;;;;9.73;3.40;;;;;;;26.00;34.25;102501.28;5068138;28;20032;-47
2024/02/01 02:28:05;;;;;;;7.80;3.30;;;;;;;26.02;33.90;102503.75;5075354;28;20033;-45
2024/02/01 02:30:30;;;;;;;10.43;4.00;;;;;;;26.00;34.39;102511.56;5062052;28;20036;-44
2024/02/01 02:32:56;;;;;;;6.95;3.08;;;;;;;25.95;34.30;102513.25;5083168;28;20052;-46
2024/02/01 02:35:21;;;;;;;10.55;3.50;;;;;;;25.99;34.22;102526.56;5086472;28;20020;-49
2024/02/01 02:37:49;;;;;;;7.18;3.20;;;;;;;25.99;34.47;102523.78;5064915;28;20026;-45
2024/02/01 02:40:15;;;;;;;7.60;3.20;;;;;;;25.95;34.37;102516.03;5088933;28;20454;-45
2024/02/01 02:42:42;;;;;;;9.88;3.42;;;;;;;25.94;34.27;102531.03;5088053;28;20024;-46
2024/02/01 02:45:08;;;;;;;7.95;3.60;;;;;;;25.93;34.62;102539.66;5084617;28;20035;-46
2024/02/01 02:47:33;;;;;;;8.52;3.30;;;;;;;25.94;34.25;102547.69;5060109;28;20032;-48
2024/02/01 02:49:58;;;;;;;7.25;3.28;;;;;;;25.93;34.53;102548.84;5086194;28;20437;-46
2024/02/01 02:52:24;;;;;;;9.48;3.53;;;;;;;25.98;34.60;102559.06;5073934;28;20078;-45
2024/02/01 02:54:49;;;;;;;14.15;4.43;;;;;;;25.97;34.40;102557.41;5076864;28;20527;-46
2024/02/01 02:57:14;;;;;;;9.80;3.25;;;;;;;25.98;34.18;102552.69;5072693;28;20036;-45
2024/02/01 02:59:41;;;;;;;8.75;3.60;;;;;;;25.97;34.19;102557.41;5078478;28;20069;-47
2024/02/01 03:02:06;;;;;;;10.88;3.72;;;;;;;25.95;34.56;102567.97;5082327;28;20859;-46
2024/02/01 03:04:35;;;;;;;9.15;3.58;;;;;;;25.96;34.29;102572.44;5078037;28;20024;-42
2024/02/01 03:07:00;;;;;;;6.07;3.08;;;;;;;25.93;34.61;102570.22;5087280;28;20035;-48
2024/02/01 03:09:26;;;;;;;8.90;3.95;;;;;;;25.91;34.25;102580.78;5080198;28;20024;-44
2024/02/01 03:11:51;;;;;;;9.50;3.42;;;;;;;25.93;34.19;102584.09;5083267;28;20025;-48
2024/02/01 03:14:17;;;;;;;8.00;3.35;;;;;;;25.90;34.14;102584.69;5087221;28;20506;-44
2024/02/01 03:16:42;;;;;;;8.52;3.70;;;;;;;25.90;34.62;102581.91;5081835;28;20544;-42
2024/02/01 03:19:11;;;;;;;9.27;4.35;;;;;;;25.89;34.44;102591.38;5088193;28;20081;-43
2024/02/01 03:21:36;;;;;;;7.93;3.55;;;;;;;25.90;34.56;102591.06;5082648;28;20426;-42
2024/02/01 03:24:02;;;;;;;10.75;4.00;;;;;;;25.90;34.36;102604.13;5087892;28;20016;-45
2024/02/01 03:26:34;;;;;;;11.80;4.53;;;;;;;25.92;34.64;102596.31;5080335;28;20760;-47
2024/02/01 03:29:00;;;;;;;10.88;3.63;;;;;;;25.94;34.52;102610.75;5083827;28;20032;-45
2024/02/01 03:31:33;;;;;;;10.18;3.80;;;;;;;25.90;34.63;102615.25;5073555;28;20032;-45
2024/02/01 03:34:01;;;;;;;11.95;3.60;;;;;;;25.84;34.22;102605.28;5081912;28;20027;-44
2024/02/01 03:36:26;;;;;;;9.88;3.63;;;;;;;25.84;34.61;102622.78;5089045;28;20400;-51
2024/02/01 03:38:52;;;;;;;7.40;2.97;;;;;;;25.81;34.46;102619.75;5084926;28;20020;-46
2024/02/01 03:41:18;;;;;;;10.10;3.95;;;;;;;25.81;34.57;102636.41;5089251;28;20032;-47
2024/02/01 03:43:43;;;;;;;8.45;3.35;;;;;;;25.81;34.47;102640.00;5077499;28;20034;-47
2024/02/01 03:46:08;;;;;;;9.68;4.30;;;;;;;25.84;34.57;102646.94;5086285;28;20032;-49
2024/02/01 03:48:34;;;;;;;7.75;3.05;;;;;;;25.83;34.38;102645.28;5071458;28;20032;-46
2024/02/01 03:51:00;;;;;;;10.38;3.55;;;;;;;25.82;34.58;102647.22;5077599;28;20031;-49
2024/02/01 03:53:25;;;;;;;10.48;3.67;;;;;;;25.88;34.59;102650.81;5089921;28;20168;-48
2024/02/01 03:55:51;;;;;;;8.77;3.33;;;;;;;25.88;34.21;102654.41;5090230;28;20019;-49
2024/02/01 03:58:21;;;;;;;11.85;3.47;;;;;;;25.82;34.52;102655.53;5077820;28;20081;-50
2024/02/01 04:00:50;;;;;;;8.48;3.00;;;;;;;25.84;34.53;102661.66;5081519;28;20024;-47
2024/02/01 04:03:15;;;;;;;14.38;3.40;;;;;;;25.83;34.21;102667.50;5089227;28;20557;-46
2024/02/01 04:05:41;;;;;;;11.02;3.40;;;;;;;25.83;34.19;102661.94;5086125;28;20020;-45
2024/02/01 04:08:08;;;;;;;9.70;3.78;;;;;;;25.75;34.50;102664.22;5090325;28;20024;-49
2024/02/01 04:10:37;;;;;;;10.43;3.55;;;;;;;25.72;34.53;102672.28;5058924;28;20032;-45
2024/02/01 04:13:06;;;;;;;9.45;3.70;;;;;;;25.72;34.39;102677.84;5087969;28;20032;-49
2024/02/01 04:15:33;;;;;;;9.77;3.78;;;;;;;25.73;34.23;102690.59;5071707;28;20032;-45
2024/02/01 04:17:58;;;;;;;8.98;3.10;;;;;;;25.76;34.41;102690.88;5075830;28;20035;-50
2024/02/01 04:20:23;;;;;;;9.65;3.17;;;;;;;25.74;34.30;102693.09;5078123;28;20016;-46
2024/02/01 04:22:53;;;;;;;11.93;3.72;;;;;;;25.70;34.15;102692.00;5086039;28;20103;-48
2024/02/01 04:25:25;;;;;;;8.45;3.17;;;;;;;25.69;34.40;102698.69;5089596;28;20035;-50
2024/02/01 04:27:51;;;;;;;10.02;3.75;;;;;;;25.70;34.35;102717.00;5076507;28;20028;-50
2024/02/01 04:30:18;;;;;;;11.55;2.90;;;;;;;25.68;34.43;102727.56;5081648;28;20519;-46
2024/02/01 04:32:44;;;;;;;8.75;3.25;;;;;;;25.66;34.12;102732.56;5084124;28;20028;-47
2024/02/01 04:35:12;;;;;;;9.10;3.65;;;;;;;25.67;34.31;102736.19;5071083;28;20425;-45
2024/02/01 04:37:52;;;;;;;8.98;3.15;;;;;;;25.66;34.58;102728.97;5085129;28;20554;-47
2024/02/01 04:40:18;;;;;;;8.93;3.20;;;;;;;25.68;33.99;102721.16;5086794;28;20105;-47
2024/02/01 04:42:50;;;;;;;11.35;3.50;;;;;;;25.69;34.20;102723.66;5079423;28;20028;-46
2024/02/01 04:45:15;;;;;;;9.50;3.45;;;;;;;25.68;34.22;102735.88;5082623;28;20525;-45
2024/02/01 04:47:40;;;;;;;9.20;3.60;;;;;;;25.65;33.94;102739.22;5081717;28;20048;-46
2024/02/01 04:50:06;;;;;;;12.82;3.45;;;;;;;25.64;34.32;102732.03;5082934;28;20103;-44
2024/02/01 04:52:33;;;;;;;12.25;3.47;;;;;;;25.67;34.17;102745.31;5082374;28;20021;-45
2024/02/01 04:54:58;;;;;;;10.52;4.20;;;;;;;25.66;34.03;102740.06;5082513;28;20042;-44
2024/02/01 04:57:24;;;;;;;11.68;3.28;;;;;;;25.61;33.94;102730.63;5085383;28;20027;-46
2024/02/01 04:59:50;;;;;;;9.45;3.25;;;;;;;25.65;34.02;102728.09;5083991;28;20089;-44
2024/02/01 05:02:15;;;;;;;11.40;3.22;;;;;;;25.69;34.10;102731.16;5087532;28;20028;-45
2024/02/01 05:04:42;;;;;;;9.40;3.70;;;;;;;25.62;33.95;102742.56;5082444;28;20044;-43
2024/02/01 05:07:07;;;;;;;9.25;3.28;;;;;;;25.61;34.24;102738.13;5078970;28;20024;-46
2024/02/01 05:09:33;;;;;;;9.23;3.50;;;;;;;25.61;33.90;102752.00;5076919;28;20352;-46
2024/02/01 05:11:59;;;;;;;8.35;2.88;;;;;;;25.54;33.92;102746.78;5075379;28;20475;-45
2024/02/01 05:14:25;;;;;;;7.05;2.78;;;;;;;25.56;34.08;102760.38;5088056;28;20035;-43
2024/02/01 05:16:50;;;;;;;10.65;3.08;;;;;;;25.55;33.97;102764.25;5082571;28;20060;-44
2024/02/01 05:19:19;;;;;;;8.07;3.08;;;;;;;25.61;33.77;102771.44;5081844;28;20039;-43
2024/02/01 05:21:44;;;;;;;9.73;3.70;;;;;;;25.78;33.87;102771.09;5081776;28;20062;-46
2024/02/01 05:24:13;;;;;;;9.05;2.88;;;;;;;25.93;33.51;102771.06;5081166;28;20028;-44
2024/02/01 05:26:46;;;;;;;7.50;2.60;;;;;;;26.14;33.07;102775.69;5073410;28;20032;-44
2024/02/01 05:29:12;;;;;;;6.35;2.70;;;;;;;26.20;33.39;102777.31;5070447;28;20035;-42
2024/02/01 05:31:38;;;;;;;9.73;2.95;;;;;;;26.30;32.98;102771.69;5077581;28;20024;-46
2024/02/01 05:34:05;;;;;;;8.88;3.10;;;;;;;26.38;33.30;102779.41;5087219;28;20501;-43
2024/02/01 05:36:31;;;;;;;10.23;3.13;;;;;;;26.51;32.94;102800.19;5087112;28;20109;-42
2024/02/01 05:38:57;;;;;;;12.05;3.00;;;;;;;26.57;32.96;102798.19;5076931;28;20499;-45
2024/02/01 05:41:22;;;;;;;7.72;3.20;;;;;;;26.74;32.65;102804.22;5082066;28;20099;-44
2024/02/01 05:43:48;;;;;;;7.53;2.97;;;;;;;26.85;32.46;102810.50;5088387;28;20016;-45
2024/02/01 05:46:14;;;;;;;8.98;2.53;;;;;;;26.97;32.67;102821.25;5084427;28;20020;-44
2024/02/01 05:48:45;;;;;;;8.52;2.83;;;;;;;27.05;32.68;102814.22;5077821;28;20028;-44
2024/02/01 05:51:11;;;;;;;7.38;2.60;;;;;;;27.20;32.47;102819.66;5081236;28;20028;-43
2024/02/01 05:53:38;;;;;;;8.68;3.30;;;;;;;27.26;32.44;102822.41;5082715;28;20036;-44
2024/02/01 05:56:03;;;;;;;10.35;3.50;;;;;;;27.31;32.24;102816.78;5087282;28;20032;-48
2024/02/01 05:58:29;;;;;;;8.77;3.15;;;;;;;27.38;32.59;102822.81;5082471;28;20039;-44
2024/02/01 06:00:55;;;;;;;9.65;3.10;;;;;;;27.47;32.18;102826.66;5072666;28;20031;-45
2024/02/01 06:03:20;;;;;;;11.05;3.47;;;;;;;27.41;32.51;102824.22;5085476;28;20064;-43
2024/02/01 06:05:48;;;;;;;9.40;3.15;;;;;;;27.39;32.19;102814.19;5086749;28;20032;-45
2024/02/01 06:08:23;;;;;;;10.60;3.10;;;;;;;27.40;32.44;102820.59;5075548;28;20042;-43
2024/02/01 06:10:49;;;;;;;8.48;2.97;;;;;;;27.48;32.06;102827.47;5083284;28;20032;-43
2024/02/01 06:13:14;;;;;;;9.68;2.92;;;;;;;27.46;31.95;102822.22;5090956;28;20024;-43
2024/02/01 06:15:39;;;;;;;10.75;3.22;;;;;;;27.42;32.12;102831.44;5073745;28;20060;-42
2024/02/01 06:18:05;;;;;;;9.43;3.42;;;;;;;27.41;32.12;102835.34;5088603;28;20020;-45
2024/02/01 06:20:31;;;;;;;8.88;3.38;;;;;;;27.39;32.41;102838.41;5090826;28;20520;-43
2024/02/01 06:22:59;;;;;;;8.02;3.28;;;;;;;27.39;32.01;102853.19;5077547;28;20100;-45
2024/02/01 06:25:24;;;;;;;11.23;3.90;;;;;;;27.37;31.99;102858.19;5086420;28;20388;-45
2024/02/01 06:27:49;;;;;;;8.32;3.17;;;;;;;27.30;32.34;102865.25;5083155;28;20115;-44
2024/02/01 06:30:15;;;;;;;9.88;3.17;;;;;;;27.27;32.27;102871.38;5084336;28;20089;-45
2024/02/01 06:32:41;;;;;;;9.23;2.90;;;;;;;27.20;32.17;102869.75;5085726;28;20020;-43
2024/02/01 06:35:13;;;;;;;8.88;3.10;;;;;;;27.14;32.39;102873.72;5054509;28;20031;-44
2024/02/01 06:37:42;;;;;;;9.85;3.30;;;;;;;27.09;32.16;102881.25;5088469;28;20032;-44
2024/02/01 06:40:10;;;;;;;11.63;3.08;;;;;;;27.06;32.43;102891.03;5089656;28;20039;-44
2024/02/01 06:42:54;;;;;;;10.10;3.55;;;;;;;27.00;32.70;102875.50;5086772;28;20024;-44
2024/02/01 06:45:30;;;;;;;8.73;2.92;;;;;;;27.00;32.59;102884.69;5086934;28;20507;-45
2024/02/01 06:48:08;;;;;;;11.43;3.10;;;;;;;27.01;32.66;102889.09;5086502;28;20489;-46
2024/02/01 06:50:46;;;;;;;11.88;3.92;;;;;;;26.90;32.31;102895.88;5086770;28;20384;-45
2024/02/01 06:53:19;;;;;;;14.55;3.58;;;;;;;26.92;32.28;102902.00;5092237;28;20583;-48
2024/02/01 06:55:56;;;;;;;10.00;3.35;;;;;;;26.93;32.37;102903.66;5090239;28;20537;-45
2024/02/01 06:58:38;;;;;;;9.00;2.78;;;;;;;26.97;32.35;102912.25;5089650;28;20032;-45
2024/02/01 07:01:23;;;;;;;9.57;3.55;;;;;;;26.92;32.62;102910.34;5058709;28;20071;-48
2024/02/01 07:06:53;;;;;;;74.45;7.60;;;;;;;26.78;33.72;102915.72;5040838;28;20507;-50
2024/02/01 07:09:27;;;;;;;44.95;5.13;;;;;;;21.09;41.47;102934.47;5059565;28;20098;-51
2024/02/01 07:12:09;;;;;;;28.20;4.00;;;;;;;19.42;45.25;102941.22;5084352;28;20056;-53
